createdAt,value
2023-05-14T00:00:20.196Z,15.40
2023-05-14T00:02:48.552Z,15.40
2023-05-14T00:05:18.220Z,15.40
2023-05-14T00:07:48.577Z,15.30
2023-05-14T00:10:17.631Z,15.30
2023-05-14T00:12:45.795Z,15.30
2023-05-14T00:15:14.397Z,15.20
2023-05-14T00:17:43.210Z,15.20
2023-05-14T00:20:12.747Z,15.20
2023-05-14T00:22:42.428Z,15.10
2023-05-14T00:25:11.147Z,15.10
2023-05-14T00:27:39.480Z,15.10
2023-05-14T00:30:08.885Z,15.10
2023-05-14T00:32:37.263Z,15.10
2023-05-14T00:35:06.220Z,15.10
2023-05-14T00:37:34.494Z,15.10
2023-05-14T00:40:06.880Z,15.10
2023-05-14T00:42:35.568Z,15.10
2023-05-14T00:45:04.275Z,15.20
2023-05-14T00:47:34.789Z,15.20
2023-05-14T00:50:03.786Z,15.20
2023-05-14T00:52:32.585Z,15.20
2023-05-14T00:55:01.988Z,15.10
2023-05-14T00:57:32.015Z,15.10
2023-05-14T01:00:00.915Z,15.10
2023-05-14T01:02:29.205Z,15.00
2023-05-14T01:04:58.504Z,15.00
2023-05-14T01:07:34.713Z,15.00
2023-05-14T01:10:07.648Z,15.00
2023-05-14T01:12:42.285Z,15.00
2023-05-14T01:15:13.766Z,15.00
2023-05-14T01:17:46.934Z,15.00
2023-05-14T01:20:15.970Z,14.90
2023-05-14T01:22:45.828Z,14.90
2023-05-14T01:25:14.126Z,14.90
2023-05-14T01:27:51.023Z,14.90
2023-05-14T01:30:24.594Z,14.90
2023-05-14T01:32:56.964Z,14.90
2023-05-14T01:35:28.264Z,14.90
2023-05-14T01:38:00.751Z,14.90
2023-05-14T01:40:29.590Z,14.90
2023-05-14T01:42:58.457Z,15.00
2023-05-14T01:45:26.950Z,14.90
2023-05-14T01:47:55.375Z,14.90
2023-05-14T01:50:26.140Z,14.90
2023-05-14T01:52:56.459Z,14.90
2023-05-14T01:55:26.709Z,14.90
2023-05-14T01:57:55.910Z,14.90
2023-05-14T02:00:26.020Z,14.90
2023-05-14T02:02:54.599Z,14.90
2023-05-14T02:05:24.857Z,14.90
2023-05-14T02:07:55.151Z,14.90
2023-05-14T02:10:23.878Z,14.90
2023-05-14T02:12:53.668Z,14.80
2023-05-14T02:15:22.174Z,14.80
2023-05-14T02:17:50.808Z,14.70
2023-05-14T02:20:19.230Z,14.70
2023-05-14T02:22:47.416Z,14.60
2023-05-14T02:25:15.911Z,14.50
2023-05-14T02:27:45.059Z,14.40
2023-05-14T02:30:15.700Z,14.30
2023-05-14T02:32:43.933Z,14.20
2023-05-14T02:35:12.274Z,14.20
2023-05-14T02:37:40.774Z,14.10
2023-05-14T02:40:12.439Z,14.00
2023-05-14T02:42:40.922Z,13.90
2023-05-14T02:45:09.974Z,13.90
2023-05-14T02:47:39.895Z,13.80
2023-05-14T02:50:09.370Z,13.80
2023-05-14T02:52:37.619Z,13.70
2023-05-14T02:55:06.982Z,13.70
2023-05-14T02:57:35.284Z,13.60
2023-05-14T03:00:04.372Z,13.60
2023-05-14T03:02:33.216Z,13.50
2023-05-14T03:05:03.793Z,13.50
2023-05-14T03:07:31.964Z,13.50
2023-05-14T03:10:02.896Z,13.40
2023-05-14T03:12:31.237Z,13.40
2023-05-14T03:14:59.439Z,13.30
2023-05-14T03:17:27.656Z,13.30
2023-05-14T03:19:55.910Z,13.20
2023-05-14T03:22:25.604Z,13.20
2023-05-14T03:24:53.805Z,13.10
2023-05-14T03:27:22.100Z,13.10
2023-05-14T03:29:50.346Z,13.10
2023-05-14T03:32:19.311Z,13.00
2023-05-14T03:34:47.775Z,13.00
2023-05-14T03:37:16.007Z,13.00
2023-05-14T03:39:45.759Z,13.00
2023-05-14T03:42:14.127Z,13.00
2023-05-14T03:44:42.411Z,13.00
2023-05-14T03:47:10.880Z,13.00
2023-05-14T03:49:39.176Z,12.90
2023-05-14T03:52:10.380Z,12.90
2023-05-14T03:54:38.637Z,12.90
2023-05-14T03:57:08.587Z,12.90
2023-05-14T03:59:36.798Z,12.90
2023-05-14T04:02:05.292Z,12.80
2023-05-14T04:04:33.496Z,12.80
2023-05-14T04:07:03.681Z,12.80
2023-05-14T04:09:31.924Z,12.80
2023-05-14T04:12:00.181Z,12.80
2023-05-14T04:14:30.077Z,12.80
2023-05-14T04:17:00.184Z,12.70
2023-05-14T04:19:28.522Z,12.80
2023-05-14T04:21:56.838Z,12.80
2023-05-14T04:24:25.393Z,12.80
2023-05-14T04:26:53.695Z,12.80
2023-05-14T04:29:21.982Z,12.90
2023-05-14T04:31:52.112Z,12.90
2023-05-14T04:34:20.367Z,12.90
2023-05-14T04:36:48.554Z,13.00
2023-05-14T04:39:16.793Z,13.00
2023-05-14T04:41:45.005Z,13.00
2023-05-14T04:44:14.178Z,13.10
2023-05-14T04:46:42.592Z,13.10
2023-05-14T04:49:12.417Z,13.20
2023-05-14T04:51:40.946Z,13.20
2023-05-14T04:54:09.242Z,13.20
2023-05-14T04:56:37.576Z,13.30
2023-05-14T04:59:06.354Z,13.30
2023-05-14T05:01:34.777Z,13.40
2023-05-14T05:04:03.107Z,13.40
2023-05-14T05:06:32.881Z,13.50
2023-05-14T05:09:02.077Z,13.50
2023-05-14T05:11:30.624Z,13.60
2023-05-14T05:13:59.042Z,13.70
2023-05-14T05:16:27.475Z,13.70
2023-05-14T05:18:58.307Z,13.80
2023-05-14T05:21:26.818Z,13.90
2023-05-14T05:23:56.750Z,13.90
2023-05-14T05:26:26.833Z,14.00
2023-05-14T05:28:55.255Z,14.10
2023-05-14T05:31:23.781Z,14.20
2023-05-14T05:33:52.243Z,14.30
2023-05-14T05:36:20.665Z,14.30
2023-05-14T05:38:51.300Z,14.50
2023-05-14T05:41:21.040Z,14.50
2023-05-14T05:43:49.279Z,14.60
2023-05-14T05:46:18.457Z,14.60
2023-05-14T05:48:46.776Z,14.80
2023-05-14T05:51:23.360Z,14.90
2023-05-14T05:53:51.748Z,15.00
2023-05-14T05:56:22.214Z,15.00
2023-05-14T05:58:50.468Z,15.10
2023-05-14T06:01:18.824Z,15.10
2023-05-14T06:03:48.498Z,15.30
2023-05-14T06:06:17.048Z,15.30
2023-05-14T06:08:45.532Z,15.40
2023-05-14T06:11:17.028Z,15.40
2023-05-14T06:13:47.072Z,15.50
2023-05-14T06:16:15.617Z,15.60
2023-05-14T06:18:47.049Z,15.70
2023-05-14T06:21:15.347Z,15.90
2023-05-14T06:23:43.544Z,16.00
2023-05-14T06:26:11.814Z,16.10
2023-05-14T06:28:40.043Z,16.20
2023-05-14T06:31:13.752Z,16.30
2023-05-14T06:33:42.063Z,16.40
2023-05-14T06:36:11.032Z,16.50
2023-05-14T06:38:39.389Z,16.60
2023-05-14T06:41:07.655Z,16.70
2023-05-14T06:43:36.102Z,16.80
2023-05-14T06:46:04.592Z,16.90
2023-05-14T06:48:34.455Z,17.00
2023-05-14T06:51:03.445Z,17.00
2023-05-14T06:53:31.794Z,17.20
2023-05-14T06:56:00.356Z,17.20
2023-05-14T06:58:28.645Z,17.40
2023-05-14T07:00:56.814Z,17.50
2023-05-14T07:03:27.314Z,17.60
2023-05-14T07:05:57.328Z,17.70
2023-05-14T07:08:26.049Z,17.80
2023-05-14T07:10:54.369Z,17.90
2023-05-14T07:13:22.719Z,17.90
2023-05-14T07:15:51.482Z,18.00
2023-05-14T07:18:20.584Z,18.20
2023-05-14T07:25:28.807Z,18.30
2023-05-14T07:28:58.293Z,18.50
2023-05-14T08:26:05.659Z,20.50
2023-05-14T08:28:33.870Z,20.50
2023-05-14T08:31:06.067Z,20.50
2023-05-14T08:33:34.345Z,20.60
2023-05-14T08:36:03.269Z,20.80
2023-05-14T08:38:34.580Z,20.90
2023-05-14T08:41:28.123Z,21.00
2023-05-14T08:44:05.901Z,21.00
2023-05-14T08:46:37.478Z,21.30
2023-05-14T08:49:20.831Z,21.40
2023-05-14T08:51:57.600Z,21.30
2023-05-14T08:54:30.187Z,21.20
2023-05-14T08:57:02.085Z,21.20
2023-05-14T08:59:31.142Z,21.10
2023-05-14T09:02:06.525Z,21.10
2023-05-14T09:04:36.256Z,21.20
2023-05-14T09:07:05.212Z,21.20
2023-05-14T09:09:35.310Z,21.20
2023-05-14T09:12:03.912Z,21.30
2023-05-14T09:14:32.476Z,21.20
2023-05-14T09:17:02.453Z,21.20
2023-05-14T09:19:31.191Z,21.30
2023-05-14T09:22:00.639Z,21.20
2023-05-14T09:24:31.119Z,21.40
2023-05-14T09:27:00.740Z,21.60
2023-05-14T09:29:31.439Z,21.70
2023-05-14T09:32:11.162Z,21.80
2023-05-14T09:34:49.148Z,22.00
2023-05-14T09:37:18.466Z,22.10
2023-05-14T09:40:02.899Z,22.30
2023-05-14T09:42:36.642Z,22.30
2023-05-14T09:45:07.449Z,22.20
2023-05-14T09:47:38.989Z,22.50
2023-05-14T09:50:11.069Z,22.60
2023-05-14T09:52:41.132Z,22.80
2023-05-14T09:55:10.236Z,23.00
2023-05-14T09:57:46.061Z,23.30
2023-05-14T10:00:33.376Z,23.40
2023-05-14T10:03:08.203Z,23.60
2023-05-14T10:05:38.642Z,23.60
2023-05-14T10:08:11.596Z,23.80
2023-05-14T10:10:40.448Z,23.90
2023-05-14T10:13:16.912Z,24.10
2023-05-14T10:15:52.828Z,24.30
2023-05-14T10:18:39.928Z,24.40
2023-05-14T10:21:30.068Z,24.40
2023-05-14T10:23:59.981Z,24.40
2023-05-14T10:26:30.616Z,24.50
2023-05-14T10:29:02.541Z,24.50
2023-05-14T10:32:09.691Z,24.60
2023-05-14T10:34:41.727Z,24.70
2023-05-14T10:37:11.751Z,24.90
2023-05-14T10:39:45.993Z,25.00
2023-05-14T10:42:15.158Z,25.10
2023-05-14T10:44:51.761Z,25.20
2023-05-14T10:47:22.470Z,25.30
2023-05-14T10:49:55.564Z,25.30
2023-05-14T10:52:24.964Z,25.20
2023-05-14T11:27:19.205Z,25.10
2023-05-14T11:29:48.521Z,25.50
2023-05-14T11:32:29.599Z,25.80
2023-05-14T11:34:57.928Z,25.90
2023-05-14T11:37:33.673Z,25.90
2023-05-14T11:40:16.709Z,25.90
2023-05-14T11:42:47.104Z,25.90
2023-05-14T11:45:25.433Z,25.80
2023-05-14T11:47:55.189Z,25.70
2023-05-14T11:50:25.276Z,25.70
2023-05-14T11:52:57.884Z,25.70
2023-05-14T11:55:26.263Z,25.80
2023-05-14T11:57:55.977Z,25.80
2023-05-14T12:00:25.112Z,25.80
2023-05-14T12:02:53.937Z,25.90
2023-05-14T12:05:22.893Z,26.00
2023-05-14T12:07:51.174Z,26.10
2023-05-14T12:10:19.462Z,26.20
2023-05-14T12:12:49.822Z,26.60
2023-05-14T12:15:21.927Z,27.10
2023-05-14T12:17:53.311Z,27.40
2023-05-14T12:20:21.867Z,27.80
2023-05-14T12:22:50.496Z,28.50
2023-05-14T12:25:18.815Z,28.70
2023-05-14T12:27:49.223Z,28.70
2023-05-14T12:30:21.795Z,28.60
2023-05-14T12:32:53.045Z,28.40
2023-05-14T12:35:23.518Z,28.10
2023-05-14T12:37:52.328Z,27.90
2023-05-14T12:40:20.646Z,27.90
2023-05-14T12:42:51.355Z,27.90
2023-05-14T12:45:21.255Z,28.00
2023-05-14T12:47:49.405Z,27.90
2023-05-14T12:50:17.696Z,27.80
2023-05-14T12:52:46.605Z,27.80
2023-05-14T12:55:14.848Z,27.90
2023-05-14T12:57:43.278Z,28.10
2023-05-14T13:00:14.152Z,29.10
2023-05-14T13:02:44.288Z,29.90
2023-05-14T13:05:13.035Z,30.30
2023-05-14T13:07:41.572Z,30.80
2023-05-14T13:10:11.509Z,31.00
2023-05-14T13:12:39.994Z,30.80
2023-05-14T13:15:10.280Z,30.40
2023-05-14T13:17:40.452Z,29.90
2023-05-14T13:20:11.392Z,29.30
2023-05-14T13:22:39.786Z,28.80
2023-05-14T13:25:09.352Z,28.20
2023-05-14T13:27:37.821Z,27.70
2023-05-14T13:30:06.952Z,27.20
2023-05-14T13:32:35.295Z,26.90
2023-05-14T13:35:03.815Z,26.60
2023-05-14T13:37:57.003Z,26.30
2023-05-14T13:40:36.278Z,26.00
2023-05-14T13:43:07.809Z,25.90
2023-05-14T13:45:36.536Z,25.80
2023-05-14T13:48:08.372Z,25.70
2023-05-14T13:50:39.178Z,25.40
2023-05-14T13:53:08.992Z,25.30
2023-05-14T13:55:37.260Z,25.30
2023-05-14T13:58:19.901Z,25.20
2023-05-14T14:00:48.348Z,25.20
2023-05-14T14:03:16.802Z,25.20
2023-05-14T14:05:45.336Z,25.30
2023-05-14T14:08:23.437Z,25.30
2023-05-14T14:10:54.491Z,25.50
2023-05-14T14:13:23.471Z,25.80
2023-05-14T14:15:51.936Z,26.70
2023-05-14T14:18:20.422Z,27.70
2023-05-14T14:20:49.193Z,28.40
2023-05-14T14:23:19.817Z,28.70
2023-05-14T14:25:48.123Z,28.80
2023-05-14T14:28:16.693Z,28.60
2023-05-14T14:30:45.083Z,28.40
2023-05-14T14:33:13.582Z,27.90
2023-05-14T14:35:42.125Z,27.50
2023-05-14T14:38:10.502Z,27.00
2023-05-14T14:40:41.177Z,26.60
2023-05-14T14:43:09.467Z,26.20
2023-05-14T14:45:37.959Z,25.80
2023-05-14T14:48:28.956Z,25.50
2023-05-14T14:50:57.483Z,25.00
2023-05-14T14:53:26.380Z,24.80
2023-05-14T14:55:56.197Z,24.60
2023-05-14T14:58:25.217Z,24.40
2023-05-14T15:00:55.009Z,24.30
2023-05-14T15:03:24.255Z,24.20
2023-05-14T15:05:53.867Z,24.10
2023-05-14T15:08:26.397Z,24.20
2023-05-14T15:10:57.045Z,24.10
2023-05-14T15:13:27.039Z,24.10
2023-05-14T15:15:55.629Z,24.20
2023-05-14T15:18:26.660Z,24.10
2023-05-14T15:20:58.387Z,24.10
2023-05-14T15:23:31.734Z,24.10
2023-05-14T15:26:02.164Z,24.00
2023-05-14T15:28:30.516Z,23.90
2023-05-14T15:30:58.966Z,23.90
2023-05-14T15:33:27.524Z,23.80
2023-05-14T15:35:55.792Z,23.70
2023-05-14T15:38:24.374Z,23.70
2023-05-14T15:40:52.685Z,23.60
2023-05-14T15:43:22.340Z,23.50
2023-05-14T15:46:05.954Z,23.40
2023-05-14T15:48:34.286Z,23.40
2023-05-14T15:51:04.971Z,23.20
2023-05-14T15:53:33.603Z,23.20
2023-05-14T15:56:02.089Z,23.10
2023-05-14T15:58:31.797Z,23.10
2023-05-14T16:00:59.916Z,23.10
2023-05-14T16:03:28.347Z,23.10
2023-05-14T16:05:56.934Z,23.00
2023-05-14T16:08:25.286Z,23.00
2023-05-14T16:10:53.460Z,22.90
2023-05-14T16:13:22.168Z,22.80
2023-05-14T16:15:52.095Z,22.80
2023-05-14T16:18:20.384Z,22.70
2023-05-14T16:20:49.591Z,22.60
2023-05-14T16:23:18.175Z,22.60
2023-05-14T16:25:50.629Z,22.50
2023-05-14T16:28:22.026Z,22.50
2023-05-14T16:30:54.779Z,22.50
2023-05-14T16:33:23.156Z,22.30
2023-05-14T16:35:51.799Z,22.20
2023-05-14T16:38:20.491Z,22.10
2023-05-14T16:40:48.878Z,21.90
2023-05-14T16:43:41.001Z,21.80
2023-05-14T16:46:10.786Z,21.40
2023-05-14T16:48:39.239Z,21.50
2023-05-14T16:51:14.329Z,21.30
2023-05-14T16:53:42.822Z,21.20
2023-05-14T16:56:11.104Z,21.10
2023-05-14T16:58:40.264Z,21.00
2023-05-14T17:01:10.250Z,21.00
2023-05-14T17:03:38.762Z,20.60
2023-05-14T17:06:10.024Z,20.80
2023-05-14T17:08:38.481Z,20.70
2023-05-14T17:11:10.967Z,20.70
2023-05-14T17:13:41.785Z,20.60
2023-05-14T17:16:12.077Z,20.60
2023-05-14T17:18:40.626Z,20.60
2023-05-14T17:21:08.945Z,20.50
2023-05-14T17:23:38.188Z,20.50
2023-05-14T17:26:23.023Z,20.70
2023-05-14T17:28:52.559Z,20.50
2023-05-14T17:31:23.518Z,20.50
2023-05-14T17:33:52.165Z,20.50
2023-05-14T17:36:23.934Z,20.40
2023-05-14T17:38:55.580Z,20.40
2023-05-14T17:41:27.012Z,20.30
2023-05-14T17:43:55.215Z,20.30
2023-05-14T17:46:27.743Z,20.20
2023-05-14T17:48:58.939Z,20.10
2023-05-14T17:51:27.518Z,20.10
2023-05-14T17:53:56.370Z,20.10
2023-05-14T17:56:24.653Z,20.10
2023-05-14T17:58:53.088Z,20.00
2023-05-14T18:01:21.454Z,20.00
2023-05-14T18:03:51.446Z,20.00
2023-05-14T18:06:19.726Z,20.00
2023-05-14T18:08:47.945Z,20.00
2023-05-14T18:11:16.073Z,19.90
2023-05-14T18:13:44.312Z,19.90
2023-05-14T18:16:12.737Z,19.80
2023-05-14T18:18:41.168Z,19.90
2023-05-14T18:21:10.815Z,19.80
2023-05-14T18:23:39.078Z,19.70
2023-05-14T18:26:07.671Z,19.70
2023-05-14T18:28:36.057Z,19.60
2023-05-14T18:31:05.072Z,19.60
2023-05-14T18:34:07.110Z,19.50
2023-05-14T18:37:03.631Z,19.30
2023-05-14T18:39:59.266Z,19.40
2023-05-14T18:42:50.228Z,19.30
2023-05-14T18:50:12.729Z,19.20
2023-05-14T18:53:41.590Z,19.00
2023-05-14T19:05:26.640Z,18.50
2023-05-14T19:07:55.131Z,18.00
2023-05-14T19:10:26.296Z,18.20
2023-05-14T19:12:58.739Z,18.10
2023-05-14T19:15:27.196Z,18.00
2023-05-14T19:17:55.722Z,18.00
2023-05-14T19:20:28.382Z,17.90
2023-05-14T19:23:06.240Z,17.90
2023-05-14T19:25:41.430Z,17.80
2023-05-14T19:28:21.299Z,17.70
2023-05-14T19:30:50.969Z,17.70
2023-05-14T19:33:26.147Z,17.70
2023-05-14T19:35:55.096Z,17.60
2023-05-14T19:38:29.616Z,17.50
2023-05-14T19:40:58.269Z,17.50
2023-05-14T19:43:30.629Z,17.40
2023-05-14T19:46:01.374Z,17.20
2023-05-14T19:48:34.101Z,17.30
2023-05-14T19:51:02.687Z,17.30
2023-05-14T19:53:31.164Z,17.20
2023-05-14T19:56:00.260Z,17.20
2023-05-14T19:58:31.600Z,17.10
2023-05-14T20:01:00.921Z,17.10
2023-05-14T20:03:30.157Z,17.00
2023-05-14T20:06:02.000Z,17.00
2023-05-14T20:08:30.671Z,17.00
2023-05-14T20:10:59.149Z,16.90
2023-05-14T20:13:28.082Z,16.90
2023-05-14T20:16:13.737Z,16.80
2023-05-14T20:18:46.851Z,16.80
2023-05-14T20:21:15.417Z,16.70
2023-05-14T20:23:47.609Z,16.70
2023-05-14T20:26:16.292Z,16.60
2023-05-14T20:28:47.286Z,16.60
2023-05-14T20:31:24.766Z,16.50
2023-05-14T20:33:53.113Z,16.50
2023-05-14T20:36:21.301Z,16.40
2023-05-14T20:38:49.585Z,16.40
2023-05-14T20:41:18.036Z,16.40
2023-05-14T20:43:46.428Z,16.30
2023-05-14T20:46:17.267Z,16.40
2023-05-14T20:48:51.351Z,16.30
2023-05-14T20:51:22.398Z,16.30
2023-05-14T20:53:58.440Z,16.30
2023-05-14T20:56:36.838Z,16.30
2023-05-14T20:59:05.190Z,16.30
2023-05-14T21:01:42.418Z,16.30
2023-05-14T21:04:16.954Z,16.30
2023-05-14T21:06:49.952Z,16.20
2023-05-14T21:09:24.462Z,16.30
2023-05-14T21:14:37.454Z,16.20
2023-05-14T21:17:06.410Z,16.10
2023-05-14T21:19:36.632Z,16.10
2023-05-14T21:22:12.464Z,16.10
2023-05-14T21:24:45.141Z,16.10
2023-05-14T21:27:22.841Z,16.10
2023-05-14T21:29:53.805Z,16.00
2023-05-14T21:32:22.253Z,16.00
2023-05-14T21:34:52.275Z,16.00
2023-05-14T21:37:21.307Z,16.00
2023-05-14T21:39:58.402Z,16.00
2023-05-14T21:42:27.125Z,16.00
2023-05-14T21:44:59.223Z,15.90
2023-05-14T21:47:30.218Z,15.90
2023-05-14T21:50:12.617Z,15.90
2023-05-14T21:52:41.906Z,15.90
2023-05-14T21:55:23.040Z,15.90
2023-05-14T21:57:57.165Z,16.00
2023-05-14T22:00:28.306Z,15.90
2023-05-14T22:02:56.697Z,15.90
2023-05-14T22:05:28.321Z,15.90
2023-05-14T22:07:56.542Z,15.90
2023-05-14T22:10:25.042Z,15.90
2023-05-14T22:12:53.526Z,15.90
2023-05-14T22:15:24.891Z,15.90
2023-05-14T22:17:53.863Z,16.00
2023-05-14T22:20:22.290Z,15.90
2023-05-14T22:22:52.192Z,16.00
2023-05-14T22:25:20.671Z,16.00
2023-05-14T22:27:49.046Z,16.00
2023-05-14T22:30:17.398Z,15.90
2023-05-14T22:32:45.687Z,16.00
2023-05-14T22:35:14.216Z,16.00
2023-05-14T22:37:42.524Z,16.10
2023-05-14T22:40:14.584Z,16.10
2023-05-14T22:42:43.058Z,16.00
2023-05-14T22:45:11.929Z,16.00
2023-05-14T22:47:42.685Z,16.00
2023-05-14T22:50:12.419Z,16.10
2023-05-14T22:52:41.407Z,16.10
2023-05-14T22:55:11.994Z,16.10
2023-05-14T22:57:40.588Z,16.10
2023-05-14T23:00:10.050Z,16.10
2023-05-14T23:02:39.361Z,16.10
2023-05-14T23:05:08.713Z,16.10
2023-05-14T23:07:37.002Z,16.10
2023-05-14T23:10:05.813Z,16.10
2023-05-14T23:12:35.820Z,16.10
2023-05-14T23:15:04.318Z,16.10
2023-05-14T23:17:33.174Z,16.10
2023-05-14T23:20:01.474Z,16.10
2023-05-14T23:22:30.489Z,16.10
2023-05-14T23:24:59.038Z,16.00
2023-05-14T23:27:27.452Z,16.00
2023-05-14T23:29:57.168Z,16.00
2023-05-14T23:32:25.433Z,16.00
2023-05-14T23:34:53.699Z,16.00
2023-05-14T23:37:21.964Z,15.80
2023-05-14T23:39:50.286Z,15.90
2023-05-14T23:42:18.679Z,15.90
2023-05-14T23:44:47.407Z,15.80
2023-05-14T23:47:17.324Z,15.80
2023-05-14T23:49:45.710Z,15.80
2023-05-14T23:52:13.911Z,15.70
2023-05-14T23:54:42.129Z,15.60
2023-05-14T23:57:12.957Z,15.60
2023-05-14T23:59:44.784Z,15.60
